createdAt,value
2023-07-25T00:02:26.779Z,27.09
2023-07-25T00:05:29.880Z,27.07
2023-07-25T00:08:33.650Z,26.87
2023-07-25T00:11:38.260Z,26.87
2023-07-25T00:14:41.354Z,26.96
2023-07-25T00:17:44.497Z,26.86
2023-07-25T00:20:47.589Z,26.76
2023-07-25T00:23:50.630Z,26.67
2023-07-25T00:26:55.054Z,26.56
2023-07-25T00:29:58.180Z,26.76
2023-07-25T00:33:01.279Z,26.69
2023-07-25T00:36:04.541Z,26.52
2023-07-25T00:39:07.588Z,26.49
2023-07-25T00:42:12.075Z,26.48
2023-07-25T00:45:15.151Z,26.51
2023-07-25T00:48:18.504Z,26.69
2023-07-25T00:51:22.150Z,26.84
2023-07-25T00:54:25.303Z,26.79
2023-07-25T00:57:31.907Z,26.76
2023-07-25T01:00:35.021Z,26.82
2023-07-25T01:03:40.185Z,26.77
2023-07-25T01:06:44.013Z,26.75
2023-07-25T01:09:48.138Z,26.60
2023-07-25T01:12:52.684Z,26.76
2023-07-25T01:15:56.516Z,26.81
2023-07-25T01:19:01.375Z,26.75
2023-07-25T01:22:04.657Z,26.80
2023-07-25T01:25:10.017Z,26.90
2023-07-25T01:28:13.011Z,26.85
2023-07-25T01:31:16.140Z,26.90
2023-07-25T01:34:19.245Z,26.91
2023-07-25T01:37:22.266Z,26.70
2023-07-25T01:40:26.771Z,26.54
2023-07-25T01:43:29.835Z,26.42
2023-07-25T01:46:32.951Z,26.39
2023-07-25T01:49:36.050Z,26.54
2023-07-25T01:52:39.048Z,26.73
2023-07-25T01:55:43.478Z,26.77
2023-07-25T01:58:46.553Z,26.80
2023-07-25T02:01:49.752Z,26.82
2023-07-25T02:04:52.893Z,26.84
2023-07-25T02:07:56.071Z,26.86
2023-07-25T02:11:00.626Z,26.87
2023-07-25T02:14:03.766Z,26.91
2023-07-25T02:17:07.708Z,26.92
2023-07-25T02:20:11.431Z,26.77
2023-07-25T02:23:14.499Z,26.62
2023-07-25T02:26:18.915Z,26.62
2023-07-25T02:29:22.074Z,26.51
2023-07-25T02:32:25.294Z,26.39
2023-07-25T02:35:28.449Z,26.40
2023-07-25T02:38:31.522Z,26.22
2023-07-25T02:41:35.931Z,26.18
2023-07-25T02:44:38.938Z,26.18
2023-07-25T02:47:41.997Z,26.14
2023-07-25T02:50:45.089Z,26.01
2023-07-25T02:53:48.196Z,26.31
2023-07-25T02:56:52.666Z,26.39
2023-07-25T02:59:55.790Z,26.53
2023-07-25T03:02:58.918Z,26.63
2023-07-25T03:06:02.091Z,26.70
2023-07-25T03:09:05.499Z,26.67
2023-07-25T03:12:10.628Z,26.69
2023-07-25T03:15:13.661Z,26.73
2023-07-25T03:18:16.717Z,26.76
2023-07-25T03:21:19.851Z,26.78
2023-07-25T03:24:22.966Z,26.76
2023-07-25T03:27:27.887Z,26.79
2023-07-25T03:30:30.974Z,26.76
2023-07-25T03:33:34.119Z,26.84
2023-07-25T03:36:38.534Z,26.85
2023-07-25T03:39:41.593Z,26.64
2023-07-25T03:42:46.142Z,26.69
2023-07-25T03:45:49.513Z,26.78
2023-07-25T03:48:52.594Z,26.74
2023-07-25T03:51:55.649Z,26.83
2023-07-25T03:54:58.743Z,26.88
2023-07-25T03:58:03.229Z,26.90
2023-07-25T04:01:06.330Z,26.89
2023-07-25T04:04:09.523Z,26.73
2023-07-25T04:07:12.634Z,26.73
2023-07-25T04:10:15.768Z,26.68
2023-07-25T04:13:20.257Z,26.66
2023-07-25T04:16:23.553Z,26.51
2023-07-25T04:19:26.608Z,26.55
2023-07-25T04:22:30.026Z,26.58
2023-07-25T04:25:33.105Z,26.69
2023-07-25T04:28:37.611Z,26.70
2023-07-25T04:31:40.722Z,26.80
2023-07-25T04:34:43.796Z,26.80
2023-07-25T04:37:46.797Z,26.82
2023-07-25T04:40:49.816Z,26.86
2023-07-25T04:43:54.389Z,26.63
2023-07-25T04:46:57.494Z,26.47
2023-07-25T04:50:00.620Z,26.26
2023-07-25T04:53:03.665Z,26.19
2023-07-25T04:56:07.108Z,26.06
2023-07-25T04:59:11.508Z,26.03
2023-07-25T05:02:14.614Z,25.93
2023-07-25T05:05:17.792Z,25.92
2023-07-25T05:08:20.752Z,26.00
2023-07-25T05:11:23.895Z,26.07
2023-07-25T05:14:28.338Z,26.26
2023-07-25T05:17:31.467Z,26.33
2023-07-25T05:20:34.529Z,26.38
2023-07-25T05:23:37.566Z,26.49
2023-07-25T05:26:40.651Z,26.47
2023-07-25T05:29:45.248Z,26.54
2023-07-25T05:32:50.412Z,26.65
2023-07-25T05:36:01.755Z,26.71
2023-07-25T05:39:05.087Z,26.66
2023-07-25T05:42:08.744Z,26.70
2023-07-25T05:45:13.372Z,26.72
2023-07-25T05:48:16.459Z,26.83
2023-07-25T05:51:19.515Z,26.90
2023-07-25T05:54:22.934Z,26.72
2023-07-25T05:57:26.074Z,26.56
2023-07-25T06:00:30.599Z,26.52
2023-07-25T06:03:33.838Z,26.53
2023-07-25T06:06:37.044Z,26.60
2023-07-25T06:09:40.122Z,26.72
2023-07-25T06:12:43.697Z,26.84
2023-07-25T06:15:48.372Z,26.94
2023-07-25T06:18:51.490Z,27.06
2023-07-25T06:21:54.549Z,27.02
2023-07-25T06:24:57.805Z,27.03
2023-07-25T06:28:01.020Z,27.14
2023-07-25T06:31:05.641Z,27.07
2023-07-25T06:34:08.861Z,27.14
2023-07-25T06:37:12.093Z,27.09
2023-07-25T06:40:15.146Z,27.14
2023-07-25T06:43:18.157Z,26.89
2023-07-25T06:46:26.131Z,27.03
2023-07-25T06:49:29.306Z,27.19
2023-07-25T06:52:32.416Z,27.29
2023-07-25T06:55:35.875Z,27.22
2023-07-25T06:58:39.027Z,27.24
2023-07-25T07:01:43.493Z,27.35
2023-07-25T07:04:47.069Z,27.36
2023-07-25T07:07:50.557Z,27.29
2023-07-25T07:10:54.887Z,27.30
2023-07-25T07:13:58.009Z,27.36
2023-07-25T07:17:02.516Z,27.33
2023-07-25T07:20:06.294Z,27.36
2023-07-25T07:23:09.374Z,27.38
2023-07-25T07:26:12.426Z,27.44
2023-07-25T07:29:15.600Z,27.48
2023-07-25T07:32:20.137Z,27.61
2023-07-25T07:35:23.233Z,27.63
2023-07-25T07:38:26.275Z,27.70
2023-07-25T07:41:29.733Z,27.72
2023-07-25T07:44:33.067Z,27.71
2023-07-25T07:47:37.586Z,27.74
2023-07-25T07:50:40.783Z,27.74
2023-07-25T07:53:43.803Z,27.72
2023-07-25T07:56:46.976Z,27.75
2023-07-25T07:59:50.053Z,27.79
2023-07-25T08:02:54.588Z,27.77
2023-07-25T08:05:58.651Z,27.72
2023-07-25T08:09:01.699Z,27.71
2023-07-25T08:12:05.419Z,27.75
2023-07-25T08:15:09.183Z,27.80
2023-07-25T08:18:13.761Z,27.75
2023-07-25T08:21:16.819Z,27.66
2023-07-25T08:24:19.828Z,27.62
2023-07-25T08:27:22.979Z,27.72
2023-07-25T08:30:26.067Z,27.98
2023-07-25T08:33:32.984Z,27.82
2023-07-25T08:36:36.227Z,27.75
2023-07-25T08:39:39.324Z,27.73
2023-07-25T08:42:44.420Z,27.70
2023-07-25T08:45:50.445Z,27.77
2023-07-25T08:49:01.732Z,27.82
2023-07-25T08:52:06.756Z,27.84
2023-07-25T08:55:10.561Z,28.03
2023-07-25T08:58:15.729Z,28.20
2023-07-25T09:01:19.540Z,28.10
2023-07-25T09:04:25.354Z,28.50
2023-07-25T09:07:28.665Z,28.39
2023-07-25T09:10:32.366Z,28.39
2023-07-25T09:13:36.036Z,28.58
2023-07-25T09:16:39.247Z,28.31
2023-07-25T09:19:43.830Z,28.42
2023-07-25T09:22:49.092Z,28.67
2023-07-25T09:26:04.839Z,28.85
2023-07-25T09:29:08.105Z,28.81
2023-07-25T09:32:20.388Z,28.93
2023-07-25T09:35:26.051Z,28.65
2023-07-25T09:38:29.170Z,28.45
2023-07-25T09:41:32.793Z,28.61
2023-07-25T09:44:36.156Z,28.58
2023-07-25T09:47:40.926Z,28.80
2023-07-25T09:50:46.473Z,29.00
2023-07-25T09:53:53.644Z,28.70
2023-07-25T09:56:56.768Z,28.89
2023-07-25T10:00:01.132Z,29.00
2023-07-25T10:03:04.512Z,28.87
2023-07-25T10:06:10.027Z,28.70
2023-07-25T10:09:15.185Z,28.59
2023-07-25T10:12:18.308Z,28.85
2023-07-25T10:15:21.829Z,28.83
2023-07-25T10:18:28.561Z,28.97
2023-07-25T10:21:48.659Z,28.88
2023-07-25T10:24:51.884Z,28.70
2023-07-25T10:27:57.177Z,28.67
2023-07-25T10:31:00.356Z,28.67
2023-07-25T10:34:05.461Z,28.75
2023-07-25T10:37:24.146Z,28.74
2023-07-25T10:40:27.283Z,28.73
2023-07-25T10:43:32.327Z,28.69
2023-07-25T10:46:36.543Z,28.78
2023-07-25T10:49:58.269Z,28.87
2023-07-25T10:53:16.110Z,28.75
2023-07-25T10:56:20.348Z,28.74
2023-07-25T10:59:23.572Z,28.72
2023-07-25T11:02:33.700Z,28.70
2023-07-25T11:05:36.887Z,28.67
2023-07-25T11:08:43.028Z,28.65
2023-07-25T11:11:47.482Z,28.61
2023-07-25T11:14:52.190Z,28.63
2023-07-25T11:17:55.495Z,28.65
2023-07-25T11:21:02.746Z,28.68
2023-07-25T11:24:08.494Z,28.73
2023-07-25T11:27:11.767Z,28.77
2023-07-25T11:30:17.215Z,28.71
2023-07-25T11:33:20.934Z,28.72
2023-07-25T11:36:24.089Z,28.71
2023-07-25T11:39:28.776Z,28.71
2023-07-25T11:42:31.891Z,28.76
2023-07-25T11:45:35.277Z,28.75
2023-07-25T11:48:38.465Z,28.79
2023-07-25T11:51:42.675Z,28.90
2023-07-25T11:54:47.598Z,28.87
2023-07-25T11:57:52.437Z,28.78
2023-07-25T12:00:55.924Z,28.77
2023-07-25T12:04:01.706Z,28.77
2023-07-25T12:07:05.248Z,28.80
2023-07-25T12:10:10.144Z,28.78
2023-07-25T12:13:13.590Z,28.79
2023-07-25T12:16:30.771Z,28.76
2023-07-25T12:19:34.316Z,28.76
2023-07-25T12:22:38.922Z,28.81
2023-07-25T12:25:43.888Z,28.83
2023-07-25T12:28:47.398Z,28.83
2023-07-25T12:31:50.770Z,28.82
2023-07-25T12:35:01.081Z,28.78
2023-07-25T12:38:04.237Z,28.76
2023-07-25T12:41:09.703Z,28.72
2023-07-25T12:44:12.994Z,28.94
2023-07-25T12:47:16.038Z,29.18
2023-07-25T12:50:19.898Z,29.00
2023-07-25T12:53:22.930Z,28.94
2023-07-25T12:56:27.414Z,28.92
2023-07-25T12:59:30.542Z,28.93
2023-07-25T13:02:33.770Z,28.97
2023-07-25T13:05:37.126Z,28.98
2023-07-25T13:08:40.355Z,29.00
2023-07-25T13:11:45.768Z,29.02
2023-07-25T13:14:48.831Z,29.04
2023-07-25T13:17:51.988Z,29.03
2023-07-25T13:20:56.138Z,29.00
2023-07-25T13:23:59.334Z,29.03
2023-07-25T13:27:03.889Z,29.07
2023-07-25T13:30:08.197Z,29.09
2023-07-25T13:33:11.589Z,29.13
2023-07-25T13:36:14.912Z,29.11
2023-07-25T13:39:18.810Z,29.06
2023-07-25T13:42:24.649Z,29.12
2023-07-25T13:45:38.014Z,29.12
2023-07-25T13:48:49.202Z,29.16
2023-07-25T13:51:52.324Z,29.13
2023-07-25T13:54:55.442Z,29.21
2023-07-25T13:58:09.941Z,29.32
2023-07-25T14:01:13.551Z,28.90
2023-07-25T14:04:16.742Z,27.49
2023-07-25T14:07:20.499Z,26.79
2023-07-25T14:10:23.638Z,26.04
2023-07-25T14:13:28.338Z,25.40
2023-07-25T14:16:31.413Z,24.97
2023-07-25T14:19:34.846Z,24.80
2023-07-25T14:22:37.938Z,24.47
2023-07-25T14:25:41.679Z,24.33
2023-07-25T14:28:46.722Z,24.35
2023-07-25T14:31:49.866Z,24.16
2023-07-25T14:34:53.215Z,24.17
2023-07-25T14:37:58.162Z,24.11
2023-07-25T14:41:02.257Z,23.81
2023-07-25T14:44:06.946Z,23.65
2023-07-25T14:47:10.060Z,23.73
2023-07-25T14:50:13.254Z,24.00
2023-07-25T14:53:16.373Z,24.03
2023-07-25T14:56:19.527Z,24.02
2023-07-25T14:59:24.530Z,23.89
2023-07-25T15:02:27.743Z,23.99
2023-07-25T15:05:31.075Z,23.84
2023-07-25T15:08:34.186Z,23.87
2023-07-25T15:11:39.632Z,23.61
2023-07-25T15:14:44.247Z,23.73
2023-07-25T15:17:47.307Z,23.73
2023-07-25T15:20:53.534Z,23.82
2023-07-25T15:23:56.640Z,23.67
2023-07-25T15:26:59.746Z,23.52
2023-07-25T15:30:04.304Z,23.77
2023-07-25T15:33:07.619Z,24.04
2023-07-25T15:36:11.237Z,23.96
2023-07-25T15:39:14.446Z,24.16
2023-07-25T15:42:17.798Z,24.31
2023-07-25T15:45:22.303Z,24.28
2023-07-25T15:48:25.377Z,24.18
2023-07-25T15:51:28.711Z,24.34
2023-07-25T15:54:32.067Z,24.48
2023-07-25T15:57:35.152Z,25.19
2023-07-25T16:00:39.903Z,25.72
2023-07-25T16:03:48.025Z,26.08
2023-07-25T16:06:51.658Z,26.36
2023-07-25T16:09:54.711Z,26.54
2023-07-25T16:13:00.279Z,26.71
2023-07-25T16:16:07.832Z,26.86
2023-07-25T16:19:11.501Z,26.99
2023-07-25T16:22:14.745Z,27.08
2023-07-25T16:25:17.956Z,27.16
2023-07-25T16:28:20.993Z,27.22
2023-07-25T16:31:32.761Z,27.27
2023-07-25T16:34:36.716Z,27.31
2023-07-25T16:37:39.846Z,27.35
2023-07-25T16:40:43.076Z,27.40
2023-07-25T16:43:46.108Z,27.42
2023-07-25T16:46:50.669Z,27.44
2023-07-25T16:49:53.788Z,27.49
2023-07-25T16:52:56.913Z,27.51
2023-07-25T16:56:00.104Z,27.53
2023-07-25T16:59:03.317Z,27.56
2023-07-25T17:02:08.482Z,27.58
2023-07-25T17:05:14.669Z,27.59
2023-07-25T17:08:17.991Z,27.62
2023-07-25T17:11:21.077Z,27.64
2023-07-25T17:14:24.148Z,27.67
2023-07-25T17:17:29.093Z,27.66
2023-07-25T17:20:32.262Z,27.70
2023-07-25T17:23:35.437Z,27.71
2023-07-25T17:26:38.842Z,27.71
2023-07-25T17:29:41.924Z,27.73
2023-07-25T17:32:46.617Z,27.74
2023-07-25T17:35:49.717Z,27.77
2023-07-25T17:38:52.926Z,27.77
2023-07-25T17:41:56.026Z,27.78
2023-07-25T17:44:59.077Z,27.80
2023-07-25T17:48:03.553Z,27.81
2023-07-25T17:51:06.702Z,27.82
2023-07-25T17:54:09.840Z,27.83
2023-07-25T17:57:12.928Z,27.84
2023-07-25T18:00:16.297Z,27.84
2023-07-25T18:03:21.750Z,27.84
2023-07-25T18:06:24.906Z,27.86
2023-07-25T18:09:28.165Z,27.87
2023-07-25T18:12:31.312Z,27.87
2023-07-25T18:15:34.688Z,27.87
2023-07-25T18:18:39.159Z,27.88
2023-07-25T18:21:42.190Z,27.88
2023-07-25T18:24:45.343Z,27.88
2023-07-25T18:27:48.451Z,27.90
2023-07-25T18:30:55.831Z,27.91
2023-07-25T18:34:00.407Z,27.91
2023-07-25T18:37:03.715Z,27.92
2023-07-25T18:40:08.073Z,27.92
2023-07-25T18:43:18.350Z,27.94
2023-07-25T18:46:21.457Z,27.94
2023-07-25T18:49:26.014Z,27.94
2023-07-25T18:52:29.326Z,27.95
2023-07-25T18:55:32.396Z,27.97
2023-07-25T18:58:35.517Z,27.98
2023-07-25T19:01:38.609Z,27.98
2023-07-25T19:04:44.502Z,27.98
2023-07-25T19:07:47.672Z,27.98
2023-07-25T19:10:50.790Z,28.00
2023-07-25T19:13:53.899Z,27.99
2023-07-25T19:16:58.265Z,28.00
2023-07-25T19:20:05.062Z,28.01
2023-07-25T19:23:23.693Z,28.01
2023-07-25T19:26:28.813Z,28.04
2023-07-25T19:29:31.924Z,28.04
2023-07-25T19:32:34.986Z,28.04
2023-07-25T19:35:40.280Z,28.05
2023-07-25T19:38:43.703Z,28.08
2023-07-25T19:41:46.764Z,28.08
2023-07-25T19:44:49.920Z,28.07
2023-07-25T19:47:53.029Z,28.08
2023-07-25T19:50:57.544Z,28.09
2023-07-25T19:54:04.509Z,28.08
2023-07-25T19:57:08.057Z,28.11
2023-07-25T20:00:11.990Z,28.11
2023-07-25T20:03:15.195Z,28.12
2023-07-25T20:06:20.017Z,28.13
2023-07-25T20:09:23.243Z,28.13
2023-07-25T20:12:26.270Z,28.13
2023-07-25T20:15:29.497Z,28.13
2023-07-25T20:18:32.861Z,28.15
2023-07-25T20:21:37.322Z,28.15
2023-07-25T20:24:40.539Z,28.17
2023-07-25T20:27:43.617Z,28.17
2023-07-25T20:30:46.694Z,28.28
2023-07-25T20:33:49.795Z,28.28
2023-07-25T20:36:54.285Z,28.35
2023-07-25T20:39:57.335Z,28.33
2023-07-25T20:43:00.442Z,28.36
2023-07-25T20:46:04.705Z,28.33
2023-07-25T20:49:07.972Z,28.35
2023-07-25T20:52:12.467Z,28.39
2023-07-25T20:55:15.590Z,28.40
2023-07-25T20:58:18.663Z,28.40
2023-07-25T21:01:21.776Z,28.38
2023-07-25T21:04:28.913Z,28.41
2023-07-25T21:07:36.372Z,28.40
2023-07-25T21:10:41.681Z,28.41
2023-07-25T21:13:47.128Z,28.45
2023-07-25T21:16:50.209Z,28.44
2023-07-25T21:19:53.262Z,28.45
2023-07-25T21:22:57.702Z,28.44
2023-07-25T21:26:00.715Z,28.45
2023-07-25T21:29:03.884Z,28.44
2023-07-25T21:32:07.626Z,28.42
2023-07-25T21:35:10.693Z,28.42
2023-07-25T21:38:15.155Z,28.43
2023-07-25T21:41:18.236Z,28.45
2023-07-25T21:44:21.263Z,28.45
2023-07-25T21:47:24.458Z,28.45
2023-07-25T21:50:27.546Z,28.46
2023-07-25T21:53:32.786Z,28.45
2023-07-25T21:56:35.867Z,28.44
2023-07-25T21:59:38.984Z,28.41
2023-07-25T22:02:42.781Z,28.43
2023-07-25T22:05:45.909Z,28.41
2023-07-25T22:08:50.599Z,28.41
2023-07-25T22:11:55.758Z,28.44
2023-07-25T22:14:58.880Z,28.40
2023-07-25T22:18:01.963Z,28.40
2023-07-25T22:21:05.161Z,28.39
2023-07-25T22:24:09.684Z,28.38
2023-07-25T22:27:12.786Z,28.36
2023-07-25T22:30:16.288Z,28.35
2023-07-25T22:33:19.478Z,28.34
2023-07-25T22:36:22.543Z,28.35
2023-07-25T22:39:26.982Z,28.34
2023-07-25T22:42:30.010Z,28.35
2023-07-25T22:45:33.097Z,28.36
2023-07-25T22:48:36.219Z,28.35
2023-07-25T22:51:39.290Z,28.36
2023-07-25T22:54:43.838Z,28.36
2023-07-25T22:57:47.219Z,28.36
2023-07-25T23:00:50.481Z,28.39
2023-07-25T23:03:53.579Z,28.39
2023-07-25T23:06:56.669Z,28.39
2023-07-25T23:10:01.277Z,28.40
2023-07-25T23:13:04.439Z,28.40
2023-07-25T23:16:08.020Z,28.44
2023-07-25T23:19:11.138Z,28.42
2023-07-25T23:22:14.246Z,28.42
2023-07-25T23:25:18.871Z,28.39
2023-07-25T23:28:21.951Z,28.39
2023-07-25T23:31:25.054Z,28.39
2023-07-25T23:34:30.059Z,28.40
2023-07-25T23:37:33.133Z,28.40
2023-07-25T23:40:37.800Z,28.41
2023-07-25T23:43:40.886Z,28.40
2023-07-25T23:46:43.945Z,28.40
2023-07-25T23:49:47.123Z,28.38
2023-07-25T23:52:50.198Z,28.38
2023-07-25T23:55:54.670Z,28.38
2023-07-25T23:58:57.714Z,28.38
